sensor_id;sensor_type;location;lat;lon;timestamp;P1;durP1;ratioP1;P2;durP2;ratioP2
48853;SDS011;34673;52.808;17.856;2024-03-22T00:02:24;38.55;;;22.50;;
48853;SDS011;34673;52.808;17.856;2024-03-22T00:04:50;37.70;;;22.48;;
48853;SDS011;34673;52.808;17.856;2024-03-22T00:07:16;32.08;;;20.33;;
48853;SDS011;34673;52.808;17.856;2024-03-22T00:09:42;29.20;;;19.50;;
48853;SDS011;34673;52.808;17.856;2024-03-22T00:12:08;31.30;;;19.42;;
48853;SDS011;34673;52.808;17.856;2024-03-22T00:14:35;30.17;;;19.45;;
48853;SDS011;34673;52.808;17.856;2024-03-22T00:17:01;29.15;;;19.20;;
48853;SDS011;34673;52.808;17.856;2024-03-22T00:19:27;28.20;;;18.75;;
48853;SDS011;34673;52.808;17.856;2024-03-22T00:21:56;28.92;;;18.95;;
48853;SDS011;34673;52.808;17.856;2024-03-22T00:24:22;28.73;;;17.73;;
48853;SDS011;34673;52.808;17.856;2024-03-22T00:26:48;29.13;;;18.52;;
48853;SDS011;34673;52.808;17.856;2024-03-22T00:29:14;28.10;;;18.45;;
48853;SDS011;34673;52.808;17.856;2024-03-22T00:31:40;28.67;;;18.48;;
48853;SDS011;34673;52.808;17.856;2024-03-22T00:34:06;26.85;;;17.42;;
48853;SDS011;34673;52.808;17.856;2024-03-22T00:36:32;26.45;;;16.85;;
48853;SDS011;34673;52.808;17.856;2024-03-22T00:38:59;29.20;;;19.05;;
48853;SDS011;34673;52.808;17.856;2024-03-22T00:41:25;25.48;;;17.40;;
48853;SDS011;34673;52.808;17.856;2024-03-22T00:43:51;27.60;;;17.85;;
48853;SDS011;34673;52.808;17.856;2024-03-22T00:46:18;28.70;;;18.42;;
48853;SDS011;34673;52.808;17.856;2024-03-22T00:48:44;26.75;;;17.45;;
48853;SDS011;34673;52.808;17.856;2024-03-22T00:51:10;27.95;;;17.10;;
48853;SDS011;34673;52.808;17.856;2024-03-22T00:53:36;26.95;;;17.58;;
48853;SDS011;34673;52.808;17.856;2024-03-22T00:56:02;26.50;;;17.17;;
48853;SDS011;34673;52.808;17.856;2024-03-22T00:58:29;27.73;;;17.25;;
48853;SDS011;34673;52.808;17.856;2024-03-22T01:00:55;27.25;;;16.90;;
48853;SDS011;34673;52.808;17.856;2024-03-22T01:03:21;28.20;;;17.83;;
48853;SDS011;34673;52.808;17.856;2024-03-22T01:05:47;28.30;;;18.08;;
48853;SDS011;34673;52.808;17.856;2024-03-22T01:08:14;26.92;;;17.67;;
48853;SDS011;34673;52.808;17.856;2024-03-22T01:10:40;30.00;;;18.73;;
48853;SDS011;34673;52.808;17.856;2024-03-22T01:13:06;29.23;;;18.42;;
48853;SDS011;34673;52.808;17.856;2024-03-22T01:15:33;30.02;;;18.35;;
48853;SDS011;34673;52.808;17.856;2024-03-22T01:17:59;27.05;;;17.42;;
48853;SDS011;34673;52.808;17.856;2024-03-22T01:20:25;29.10;;;17.40;;
48853;SDS011;34673;52.808;17.856;2024-03-22T01:22:51;30.10;;;17.13;;
48853;SDS011;34673;52.808;17.856;2024-03-22T01:25:17;26.58;;;16.63;;
48853;SDS011;34673;52.808;17.856;2024-03-22T01:27:43;31.48;;;18.77;;
48853;SDS011;34673;52.808;17.856;2024-03-22T01:30:09;31.10;;;18.60;;
48853;SDS011;34673;52.808;17.856;2024-03-22T01:32:37;30.25;;;18.90;;
48853;SDS011;34673;52.808;17.856;2024-03-22T01:35:03;31.02;;;19.38;;
48853;SDS011;34673;52.808;17.856;2024-03-22T01:37:29;29.70;;;19.38;;
48853;SDS011;34673;52.808;17.856;2024-03-22T01:39:55;32.67;;;19.05;;
48853;SDS011;34673;52.808;17.856;2024-03-22T01:42:22;35.33;;;20.45;;
48853;SDS011;34673;52.808;17.856;2024-03-22T01:44:48;33.10;;;18.80;;
48853;SDS011;34673;52.808;17.856;2024-03-22T01:47:15;32.90;;;18.60;;
48853;SDS011;34673;52.808;17.856;2024-03-22T01:49:43;32.17;;;18.77;;
48853;SDS011;34673;52.808;17.856;2024-03-22T01:52:09;34.63;;;20.48;;
48853;SDS011;34673;52.808;17.856;2024-03-22T01:54:36;34.47;;;19.65;;
48853;SDS011;34673;52.808;17.856;2024-03-22T01:57:02;38.42;;;21.63;;
48853;SDS011;34673;52.808;17.856;2024-03-22T01:59:28;33.85;;;19.15;;
48853;SDS011;34673;52.808;17.856;2024-03-22T02:01:56;40.40;;;21.58;;
48853;SDS011;34673;52.808;17.856;2024-03-22T02:04:22;37.90;;;20.40;;
48853;SDS011;34673;52.808;17.856;2024-03-22T02:06:48;43.40;;;22.02;;
48853;SDS011;34673;52.808;17.856;2024-03-22T02:09:14;42.45;;;21.38;;
48853;SDS011;34673;52.808;17.856;2024-03-22T02:11:40;42.55;;;21.17;;
48853;SDS011;34673;52.808;17.856;2024-03-22T02:14:07;40.40;;;21.90;;
48853;SDS011;34673;52.808;17.856;2024-03-22T02:16:33;44.60;;;23.40;;
48853;SDS011;34673;52.808;17.856;2024-03-22T02:18:59;48.15;;;24.23;;
48853;SDS011;34673;52.808;17.856;2024-03-22T02:21:25;46.83;;;23.13;;
48853;SDS011;34673;52.808;17.856;2024-03-22T02:23:51;49.17;;;24.63;;
48853;SDS011;34673;52.808;17.856;2024-03-22T02:26:18;46.80;;;23.75;;
48853;SDS011;34673;52.808;17.856;2024-03-22T02:28:44;46.03;;;23.98;;
48853;SDS011;34673;52.808;17.856;2024-03-22T02:31:10;49.13;;;23.77;;
48853;SDS011;34673;52.808;17.856;2024-03-22T02:33:36;46.17;;;23.67;;
48853;SDS011;34673;52.808;17.856;2024-03-22T02:36:02;44.95;;;22.80;;
48853;SDS011;34673;52.808;17.856;2024-03-22T02:38:28;53.13;;;25.40;;
48853;SDS011;34673;52.808;17.856;2024-03-22T02:40:54;46.42;;;23.27;;
48853;SDS011;34673;52.808;17.856;2024-03-22T02:43:20;51.65;;;24.73;;
48853;SDS011;34673;52.808;17.856;2024-03-22T02:45:49;59.17;;;27.63;;
48853;SDS011;34673;52.808;17.856;2024-03-22T02:48:15;51.70;;;26.75;;
48853;SDS011;34673;52.808;17.856;2024-03-22T02:50:41;50.67;;;24.45;;
48853;SDS011;34673;52.808;17.856;2024-03-22T02:53:07;53.92;;;25.42;;
48853;SDS011;34673;52.808;17.856;2024-03-22T02:55:37;46.63;;;24.65;;
48853;SDS011;34673;52.808;17.856;2024-03-22T02:58:05;52.15;;;25.08;;
48853;SDS011;34673;52.808;17.856;2024-03-22T03:00:38;52.83;;;25.42;;
48853;SDS011;34673;52.808;17.856;2024-03-22T03:03:05;51.35;;;24.20;;
48853;SDS011;34673;52.808;17.856;2024-03-22T03:05:31;51.00;;;24.17;;
48853;SDS011;34673;52.808;17.856;2024-03-22T03:07:58;50.88;;;24.88;;
48853;SDS011;34673;52.808;17.856;2024-03-22T03:10:24;49.45;;;25.25;;
48853;SDS011;34673;52.808;17.856;2024-03-22T03:12:51;50.40;;;24.75;;
48853;SDS011;34673;52.808;17.856;2024-03-22T03:15:17;51.80;;;24.63;;
48853;SDS011;34673;52.808;17.856;2024-03-22T03:17:43;50.83;;;24.92;;
48853;SDS011;34673;52.808;17.856;2024-03-22T03:20:09;46.75;;;23.15;;
48853;SDS011;34673;52.808;17.856;2024-03-22T03:22:39;47.90;;;23.23;;
48853;SDS011;34673;52.808;17.856;2024-03-22T03:25:06;48.40;;;23.45;;
48853;SDS011;34673;52.808;17.856;2024-03-22T03:27:32;44.15;;;21.08;;
48853;SDS011;34673;52.808;17.856;2024-03-22T03:29:59;47.75;;;22.33;;
48853;SDS011;34673;52.808;17.856;2024-03-22T03:32:25;48.47;;;24.52;;
48853;SDS011;34673;52.808;17.856;2024-03-22T03:34:52;45.92;;;22.38;;
48853;SDS011;34673;52.808;17.856;2024-03-22T03:37:18;46.92;;;23.25;;
48853;SDS011;34673;52.808;17.856;2024-03-22T03:39:44;49.00;;;24.08;;
48853;SDS011;34673;52.808;17.856;2024-03-22T03:42:10;52.92;;;25.05;;
48853;SDS011;34673;52.808;17.856;2024-03-22T03:44:36;46.58;;;23.50;;
48853;SDS011;34673;52.808;17.856;2024-03-22T03:47:03;49.15;;;23.88;;
48853;SDS011;34673;52.808;17.856;2024-03-22T03:49:29;49.80;;;24.00;;
48853;SDS011;34673;52.808;17.856;2024-03-22T03:51:55;50.53;;;23.52;;
48853;SDS011;34673;52.808;17.856;2024-03-22T03:54:21;46.60;;;22.92;;
48853;SDS011;34673;52.808;17.856;2024-03-22T03:56:47;55.35;;;24.33;;
48853;SDS011;34673;52.808;17.856;2024-03-22T03:59:13;52.13;;;24.75;;
48853;SDS011;34673;52.808;17.856;2024-03-22T04:01:39;50.38;;;24.58;;
48853;SDS011;34673;52.808;17.856;2024-03-22T04:04:05;52.42;;;22.83;;
48853;SDS011;34673;52.808;17.856;2024-03-22T04:06:31;51.00;;;24.75;;
48853;SDS011;34673;52.808;17.856;2024-03-22T04:08:57;52.13;;;24.60;;
48853;SDS011;34673;52.808;17.856;2024-03-22T04:11:23;54.65;;;25.63;;
48853;SDS011;34673;52.808;17.856;2024-03-22T04:13:50;55.40;;;24.92;;
48853;SDS011;34673;52.808;17.856;2024-03-22T04:16:16;55.95;;;25.55;;
48853;SDS011;34673;52.808;17.856;2024-03-22T04:18:42;54.17;;;25.60;;
48853;SDS011;34673;52.808;17.856;2024-03-22T04:21:08;50.47;;;23.45;;
48853;SDS011;34673;52.808;17.856;2024-03-22T04:23:34;54.08;;;24.50;;
48853;SDS011;34673;52.808;17.856;2024-03-22T04:26:00;50.00;;;24.23;;
48853;SDS011;34673;52.808;17.856;2024-03-22T04:28:27;49.03;;;23.08;;
48853;SDS011;34673;52.808;17.856;2024-03-22T04:30:55;51.92;;;22.40;;
48853;SDS011;34673;52.808;17.856;2024-03-22T04:33:26;52.13;;;23.50;;
48853;SDS011;34673;52.808;17.856;2024-03-22T04:35:53;49.13;;;22.85;;
48853;SDS011;34673;52.808;17.856;2024-03-22T04:38:20;55.92;;;23.98;;
48853;SDS011;34673;52.808;17.856;2024-03-22T04:40:46;48.40;;;22.80;;
48853;SDS011;34673;52.808;17.856;2024-03-22T04:43:12;46.80;;;23.02;;
48853;SDS011;34673;52.808;17.856;2024-03-22T04:45:38;49.55;;;23.20;;
48853;SDS011;34673;52.808;17.856;2024-03-22T04:48:04;52.90;;;23.60;;
48853;SDS011;34673;52.808;17.856;2024-03-22T04:50:31;48.53;;;24.25;;
48853;SDS011;34673;52.808;17.856;2024-03-22T04:52:57;51.05;;;23.73;;
48853;SDS011;34673;52.808;17.856;2024-03-22T04:55:23;43.50;;;21.85;;
48853;SDS011;34673;52.808;17.856;2024-03-22T04:57:51;43.00;;;21.98;;
48853;SDS011;34673;52.808;17.856;2024-03-22T05:00:18;49.60;;;23.58;;
48853;SDS011;34673;52.808;17.856;2024-03-22T05:02:44;50.22;;;22.10;;
48853;SDS011;34673;52.808;17.856;2024-03-22T05:05:11;48.53;;;22.80;;
48853;SDS011;34673;52.808;17.856;2024-03-22T05:07:38;51.65;;;23.88;;
48853;SDS011;34673;52.808;17.856;2024-03-22T05:10:04;43.08;;;21.55;;
48853;SDS011;34673;52.808;17.856;2024-03-22T05:12:31;44.95;;;22.17;;
48853;SDS011;34673;52.808;17.856;2024-03-22T05:14:57;42.45;;;20.52;;
48853;SDS011;34673;52.808;17.856;2024-03-22T05:17:23;51.20;;;22.63;;
48853;SDS011;34673;52.808;17.856;2024-03-22T05:19:49;46.95;;;21.75;;
48853;SDS011;34673;52.808;17.856;2024-03-22T05:22:15;46.10;;;22.77;;
48853;SDS011;34673;52.808;17.856;2024-03-22T05:24:42;40.17;;;21.05;;
48853;SDS011;34673;52.808;17.856;2024-03-22T05:27:08;48.60;;;22.50;;
48853;SDS011;34673;52.808;17.856;2024-03-22T05:29:34;51.90;;;23.70;;
48853;SDS011;34673;52.808;17.856;2024-03-22T05:32:00;53.38;;;23.05;;
48853;SDS011;34673;52.808;17.856;2024-03-22T05:34:29;46.20;;;22.40;;
48853;SDS011;34673;52.808;17.856;2024-03-22T05:36:55;52.17;;;22.10;;
48853;SDS011;34673;52.808;17.856;2024-03-22T05:39:21;45.05;;;20.20;;
48853;SDS011;34673;52.808;17.856;2024-03-22T05:41:47;41.35;;;19.67;;
48853;SDS011;34673;52.808;17.856;2024-03-22T05:44:13;47.88;;;20.77;;
48853;SDS011;34673;52.808;17.856;2024-03-22T05:46:40;38.83;;;17.00;;
48853;SDS011;34673;52.808;17.856;2024-03-22T05:49:06;34.72;;;16.92;;
48853;SDS011;34673;52.808;17.856;2024-03-22T05:51:34;30.85;;;15.80;;
48853;SDS011;34673;52.808;17.856;2024-03-22T05:54:00;30.23;;;15.52;;
48853;SDS011;34673;52.808;17.856;2024-03-22T05:56:27;30.30;;;15.10;;
48853;SDS011;34673;52.808;17.856;2024-03-22T05:58:54;30.33;;;15.02;;
48853;SDS011;34673;52.808;17.856;2024-03-22T06:01:20;30.35;;;15.10;;
48853;SDS011;34673;52.808;17.856;2024-03-22T06:03:46;28.42;;;14.60;;
48853;SDS011;34673;52.808;17.856;2024-03-22T06:06:12;27.95;;;13.57;;
48853;SDS011;34673;52.808;17.856;2024-03-22T06:08:38;30.80;;;16.05;;
48853;SDS011;34673;52.808;17.856;2024-03-22T06:11:09;31.45;;;15.00;;
48853;SDS011;34673;52.808;17.856;2024-03-22T06:13:35;34.35;;;16.98;;
48853;SDS011;34673;52.808;17.856;2024-03-22T06:16:02;33.45;;;16.25;;
48853;SDS011;34673;52.808;17.856;2024-03-22T06:18:29;32.75;;;16.15;;
48853;SDS011;34673;52.808;17.856;2024-03-22T06:20:55;34.72;;;17.15;;
48853;SDS011;34673;52.808;17.856;2024-03-22T06:23:22;39.38;;;17.60;;
48853;SDS011;34673;52.808;17.856;2024-03-22T06:25:54;40.85;;;17.77;;
48853;SDS011;34673;52.808;17.856;2024-03-22T06:28:21;39.42;;;17.90;;
48853;SDS011;34673;52.808;17.856;2024-03-22T06:30:48;35.95;;;17.63;;
48853;SDS011;34673;52.808;17.856;2024-03-22T06:33:14;42.90;;;18.50;;
48853;SDS011;34673;52.808;17.856;2024-03-22T06:35:41;40.00;;;19.27;;
48853;SDS011;34673;52.808;17.856;2024-03-22T06:38:07;42.20;;;18.60;;
48853;SDS011;34673;52.808;17.856;2024-03-22T06:40:33;37.10;;;17.35;;
48853;SDS011;34673;52.808;17.856;2024-03-22T06:43:00;38.63;;;17.35;;
48853;SDS011;34673;52.808;17.856;2024-03-22T06:45:26;48.80;;;19.48;;
48853;SDS011;34673;52.808;17.856;2024-03-22T06:47:52;41.75;;;19.50;;
48853;SDS011;34673;52.808;17.856;2024-03-22T06:50:18;45.75;;;20.73;;
48853;SDS011;34673;52.808;17.856;2024-03-22T06:52:52;49.55;;;21.27;;
48853;SDS011;34673;52.808;17.856;2024-03-22T06:55:19;45.67;;;20.00;;
48853;SDS011;34673;52.808;17.856;2024-03-22T06:57:46;43.95;;;19.75;;
48853;SDS011;34673;52.808;17.856;2024-03-22T07:00:13;48.17;;;22.27;;
48853;SDS011;34673;52.808;17.856;2024-03-22T07:02:40;48.20;;;21.08;;
48853;SDS011;34673;52.808;17.856;2024-03-22T07:05:06;44.33;;;19.48;;
48853;SDS011;34673;52.808;17.856;2024-03-22T07:07:34;47.55;;;20.92;;
48853;SDS011;34673;52.808;17.856;2024-03-22T07:10:00;43.58;;;20.67;;
48853;SDS011;34673;52.808;17.856;2024-03-22T07:12:26;45.05;;;19.58;;
48853;SDS011;34673;52.808;17.856;2024-03-22T07:14:53;44.13;;;20.40;;
48853;SDS011;34673;52.808;17.856;2024-03-22T07:17:19;45.63;;;21.80;;
48853;SDS011;34673;52.808;17.856;2024-03-22T07:19:53;43.17;;;21.50;;
48853;SDS011;34673;52.808;17.856;2024-03-22T07:22:20;45.38;;;20.70;;
48853;SDS011;34673;52.808;17.856;2024-03-22T07:24:46;50.95;;;23.52;;
48853;SDS011;34673;52.808;17.856;2024-03-22T07:27:13;44.38;;;21.52;;
48853;SDS011;34673;52.808;17.856;2024-03-22T07:29:41;44.75;;;21.75;;
48853;SDS011;34673;52.808;17.856;2024-03-22T07:32:07;44.78;;;21.85;;
48853;SDS011;34673;52.808;17.856;2024-03-22T07:34:33;43.60;;;21.23;;
48853;SDS011;34673;52.808;17.856;2024-03-22T07:36:59;37.65;;;19.33;;
48853;SDS011;34673;52.808;17.856;2024-03-22T07:39:25;37.05;;;19.95;;
48853;SDS011;34673;52.808;17.856;2024-03-22T07:41:51;39.30;;;20.55;;
48853;SDS011;34673;52.808;17.856;2024-03-22T07:44:18;38.47;;;20.92;;
48853;SDS011;34673;52.808;17.856;2024-03-22T07:46:45;42.05;;;21.27;;
48853;SDS011;34673;52.808;17.856;2024-03-22T07:49:12;38.90;;;21.33;;
48853;SDS011;34673;52.808;17.856;2024-03-22T07:51:39;40.88;;;21.38;;
48853;SDS011;34673;52.808;17.856;2024-03-22T07:54:05;38.65;;;20.70;;
48853;SDS011;34673;52.808;17.856;2024-03-22T07:56:31;34.60;;;18.23;;
48853;SDS011;34673;52.808;17.856;2024-03-22T07:58:57;33.90;;;17.80;;
48853;SDS011;34673;52.808;17.856;2024-03-22T08:01:24;33.65;;;18.02;;
48853;SDS011;34673;52.808;17.856;2024-03-22T08:03:53;31.80;;;17.92;;
48853;SDS011;34673;52.808;17.856;2024-03-22T08:06:19;33.50;;;19.67;;
48853;SDS011;34673;52.808;17.856;2024-03-22T08:08:45;31.30;;;18.67;;
48853;SDS011;34673;52.808;17.856;2024-03-22T08:11:11;32.17;;;18.67;;
48853;SDS011;34673;52.808;17.856;2024-03-22T08:13:38;29.55;;;17.00;;
48853;SDS011;34673;52.808;17.856;2024-03-22T08:16:04;35.38;;;18.08;;
48853;SDS011;34673;52.808;17.856;2024-03-22T08:18:31;35.55;;;18.83;;
48853;SDS011;34673;52.808;17.856;2024-03-22T08:21:01;32.78;;;18.75;;
48853;SDS011;34673;52.808;17.856;2024-03-22T08:23:28;30.52;;;17.63;;
48853;SDS011;34673;52.808;17.856;2024-03-22T08:25:54;33.13;;;18.10;;
48853;SDS011;34673;52.808;17.856;2024-03-22T08:28:20;33.38;;;18.13;;
48853;SDS011;34673;52.808;17.856;2024-03-22T08:30:46;34.47;;;18.35;;
48853;SDS011;34673;52.808;17.856;2024-03-22T08:33:12;34.63;;;18.52;;
48853;SDS011;34673;52.808;17.856;2024-03-22T08:35:38;32.55;;;18.00;;
48853;SDS011;34673;52.808;17.856;2024-03-22T08:38:05;34.92;;;19.08;;
48853;SDS011;34673;52.808;17.856;2024-03-22T08:40:36;32.40;;;17.58;;
48853;SDS011;34673;52.808;17.856;2024-03-22T08:43:03;31.65;;;17.85;;
48853;SDS011;34673;52.808;17.856;2024-03-22T08:45:30;33.78;;;18.45;;
48853;SDS011;34673;52.808;17.856;2024-03-22T08:47:56;32.40;;;17.23;;
48853;SDS011;34673;52.808;17.856;2024-03-22T08:50:22;31.42;;;16.25;;
48853;SDS011;34673;52.808;17.856;2024-03-22T08:52:48;33.65;;;17.08;;
48853;SDS011;34673;52.808;17.856;2024-03-22T08:55:15;30.02;;;16.50;;
48853;SDS011;34673;52.808;17.856;2024-03-22T08:57:44;30.88;;;17.35;;
48853;SDS011;34673;52.808;17.856;2024-03-22T09:00:11;29.35;;;16.40;;
48853;SDS011;34673;52.808;17.856;2024-03-22T09:02:37;31.58;;;16.52;;
48853;SDS011;34673;52.808;17.856;2024-03-22T09:05:04;30.27;;;16.45;;
48853;SDS011;34673;52.808;17.856;2024-03-22T09:07:31;28.92;;;16.38;;
48853;SDS011;34673;52.808;17.856;2024-03-22T09:09:57;30.17;;;16.90;;
48853;SDS011;34673;52.808;17.856;2024-03-22T09:12:23;27.98;;;15.80;;
48853;SDS011;34673;52.808;17.856;2024-03-22T09:14:49;30.73;;;16.38;;
48853;SDS011;34673;52.808;17.856;2024-03-22T09:17:15;27.00;;;15.75;;
48853;SDS011;34673;52.808;17.856;2024-03-22T09:19:41;34.03;;;19.63;;
48853;SDS011;34673;52.808;17.856;2024-03-22T09:22:08;30.48;;;18.13;;
48853;SDS011;34673;52.808;17.856;2024-03-22T09:24:34;30.35;;;17.73;;
48853;SDS011;34673;52.808;17.856;2024-03-22T09:27:00;31.98;;;18.10;;
48853;SDS011;34673;52.808;17.856;2024-03-22T09:29:26;31.48;;;18.70;;
48853;SDS011;34673;52.808;17.856;2024-03-22T09:31:52;31.45;;;18.40;;
48853;SDS011;34673;52.808;17.856;2024-03-22T09:34:18;34.63;;;20.10;;
48853;SDS011;34673;52.808;17.856;2024-03-22T09:36:45;32.38;;;19.02;;
48853;SDS011;34673;52.808;17.856;2024-03-22T09:39:11;31.88;;;19.45;;
48853;SDS011;34673;52.808;17.856;2024-03-22T09:41:40;30.45;;;19.00;;
48853;SDS011;34673;52.808;17.856;2024-03-22T09:44:09;33.65;;;19.08;;
48853;SDS011;34673;52.808;17.856;2024-03-22T09:46:39;32.45;;;18.50;;
48853;SDS011;34673;52.808;17.856;2024-03-22T09:49:09;32.35;;;18.83;;
48853;SDS011;34673;52.808;17.856;2024-03-22T09:51:39;31.70;;;18.20;;
48853;SDS011;34673;52.808;17.856;2024-03-22T09:54:05;29.63;;;17.42;;
48853;SDS011;34673;52.808;17.856;2024-03-22T09:56:32;32.00;;;18.65;;
48853;SDS011;34673;52.808;17.856;2024-03-22T09:58:59;31.02;;;18.52;;
48853;SDS011;34673;52.808;17.856;2024-03-22T10:01:26;28.73;;;17.80;;
48853;SDS011;34673;52.808;17.856;2024-03-22T10:03:54;31.25;;;18.52;;
48853;SDS011;34673;52.808;17.856;2024-03-22T10:06:21;28.48;;;18.08;;
48853;SDS011;34673;52.808;17.856;2024-03-22T10:08:47;31.23;;;18.00;;
48853;SDS011;34673;52.808;17.856;2024-03-22T10:11:13;31.17;;;18.38;;
48853;SDS011;34673;52.808;17.856;2024-03-22T10:13:39;31.63;;;18.52;;
48853;SDS011;34673;52.808;17.856;2024-03-22T10:16:06;29.30;;;17.88;;
48853;SDS011;34673;52.808;17.856;2024-03-22T10:18:33;31.92;;;18.42;;
48853;SDS011;34673;52.808;17.856;2024-03-22T10:21:03;32.88;;;18.98;;
48853;SDS011;34673;52.808;17.856;2024-03-22T10:23:30;29.85;;;18.48;;
48853;SDS011;34673;52.808;17.856;2024-03-22T10:25:57;29.38;;;18.20;;
48853;SDS011;34673;52.808;17.856;2024-03-22T10:28:25;34.42;;;19.70;;
48853;SDS011;34673;52.808;17.856;2024-03-22T10:30:52;31.75;;;19.23;;
48853;SDS011;34673;52.808;17.856;2024-03-22T10:33:19;33.65;;;20.33;;
48853;SDS011;34673;52.808;17.856;2024-03-22T10:35:50;34.25;;;20.77;;
48853;SDS011;34673;52.808;17.856;2024-03-22T10:38:18;31.67;;;20.35;;
48853;SDS011;34673;52.808;17.856;2024-03-22T10:40:45;32.75;;;21.48;;
48853;SDS011;34673;52.808;17.856;2024-03-22T10:43:13;35.42;;;21.63;;
48853;SDS011;34673;52.808;17.856;2024-03-22T10:45:40;34.25;;;20.98;;
48853;SDS011;34673;52.808;17.856;2024-03-22T10:48:10;32.25;;;20.40;;
48853;SDS011;34673;52.808;17.856;2024-03-22T10:50:40;31.35;;;20.13;;
48853;SDS011;34673;52.808;17.856;2024-03-22T10:53:12;34.88;;;20.75;;
48853;SDS011;34673;52.808;17.856;2024-03-22T10:55:43;30.60;;;19.20;;
48853;SDS011;34673;52.808;17.856;2024-03-22T10:58:42;30.15;;;18.13;;
48853;SDS011;34673;52.808;17.856;2024-03-22T11:01:05;31.02;;;17.95;;
48853;SDS011;34673;52.808;17.856;2024-03-22T11:03:31;30.15;;;18.05;;
48853;SDS011;34673;52.808;17.856;2024-03-22T11:05:59;32.63;;;19.13;;
48853;SDS011;34673;52.808;17.856;2024-03-22T11:08:26;28.92;;;18.05;;
48853;SDS011;34673;52.808;17.856;2024-03-22T11:10:53;28.98;;;17.83;;
48853;SDS011;34673;52.808;17.856;2024-03-22T11:13:20;27.00;;;17.30;;
48853;SDS011;34673;52.808;17.856;2024-03-22T11:15:47;29.00;;;18.05;;
48853;SDS011;34673;52.808;17.856;2024-03-22T11:18:14;27.00;;;16.55;;
48853;SDS011;34673;52.808;17.856;2024-03-22T11:20:41;30.00;;;17.38;;
48853;SDS011;34673;52.808;17.856;2024-03-22T11:23:08;27.83;;;17.10;;
48853;SDS011;34673;52.808;17.856;2024-03-22T11:25:35;27.17;;;17.20;;
48853;SDS011;34673;52.808;17.856;2024-03-22T11:28:01;28.63;;;17.40;;
48853;SDS011;34673;52.808;17.856;2024-03-22T11:30:28;30.25;;;17.02;;
48853;SDS011;34673;52.808;17.856;2024-03-22T11:32:55;27.13;;;16.42;;
48853;SDS011;34673;52.808;17.856;2024-03-22T11:35:22;28.48;;;17.35;;
48853;SDS011;34673;52.808;17.856;2024-03-22T11:37:49;27.08;;;16.83;;
48853;SDS011;34673;52.808;17.856;2024-03-22T11:40:16;29.95;;;17.67;;
48853;SDS011;34673;52.808;17.856;2024-03-22T11:42:47;27.50;;;17.13;;
48853;SDS011;34673;52.808;17.856;2024-03-22T11:45:16;28.98;;;16.55;;
48853;SDS011;34673;52.808;17.856;2024-03-22T11:47:46;31.05;;;17.65;;
48853;SDS011;34673;52.808;17.856;2024-03-22T11:50:13;29.17;;;18.05;;
48853;SDS011;34673;52.808;17.856;2024-03-22T11:52:40;28.52;;;17.15;;
48853;SDS011;34673;52.808;17.856;2024-03-22T11:55:07;32.10;;;18.02;;
48853;SDS011;34673;52.808;17.856;2024-03-22T11:57:34;32.92;;;19.33;;
48853;SDS011;34673;52.808;17.856;2024-03-22T12:00:00;32.80;;;19.73;;
48853;SDS011;34673;52.808;17.856;2024-03-22T12:02:37;33.42;;;18.85;;
48853;SDS011;34673;52.808;17.856;2024-03-22T12:05:06;31.35;;;18.60;;
48853;SDS011;34673;52.808;17.856;2024-03-22T12:07:33;34.08;;;19.92;;
48853;SDS011;34673;52.808;17.856;2024-03-22T12:09:59;33.20;;;19.35;;
48853;SDS011;34673;52.808;17.856;2024-03-22T12:12:26;33.78;;;19.85;;
48853;SDS011;34673;52.808;17.856;2024-03-22T12:14:53;32.72;;;19.80;;
48853;SDS011;34673;52.808;17.856;2024-03-22T12:17:19;31.73;;;18.40;;
48853;SDS011;34673;52.808;17.856;2024-03-22T12:19:45;32.67;;;19.92;;
48853;SDS011;34673;52.808;17.856;2024-03-22T12:22:11;32.83;;;19.15;;
48853;SDS011;34673;52.808;17.856;2024-03-22T12:24:37;31.85;;;18.42;;
48853;SDS011;34673;52.808;17.856;2024-03-22T12:27:04;30.83;;;18.73;;
48853;SDS011;34673;52.808;17.856;2024-03-22T12:29:33;30.88;;;19.20;;
48853;SDS011;34673;52.808;17.856;2024-03-22T12:32:01;28.60;;;18.13;;
48853;SDS011;34673;52.808;17.856;2024-03-22T12:34:32;30.23;;;18.42;;
48853;SDS011;34673;52.808;17.856;2024-03-22T12:36:59;31.00;;;18.75;;
48853;SDS011;34673;52.808;17.856;2024-03-22T12:39:25;31.75;;;19.15;;
48853;SDS011;34673;52.808;17.856;2024-03-22T12:41:52;33.28;;;18.98;;
48853;SDS011;34673;52.808;17.856;2024-03-22T12:44:19;32.33;;;19.48;;
48853;SDS011;34673;52.808;17.856;2024-03-22T12:46:46;29.48;;;18.38;;
48853;SDS011;34673;52.808;17.856;2024-03-22T12:49:13;30.33;;;18.65;;
48853;SDS011;34673;52.808;17.856;2024-03-22T12:51:39;27.15;;;17.80;;
48853;SDS011;34673;52.808;17.856;2024-03-22T12:54:07;30.23;;;18.13;;
48853;SDS011;34673;52.808;17.856;2024-03-22T12:56:35;29.48;;;18.55;;
48853;SDS011;34673;52.808;17.856;2024-03-22T12:59:02;28.85;;;18.20;;
48853;SDS011;34673;52.808;17.856;2024-03-22T13:01:29;29.85;;;17.52;;
48853;SDS011;34673;52.808;17.856;2024-03-22T13:03:55;25.55;;;16.30;;
48853;SDS011;34673;52.808;17.856;2024-03-22T13:06:21;29.02;;;17.85;;
48853;SDS011;34673;52.808;17.856;2024-03-22T13:08:47;26.73;;;16.25;;
48853;SDS011;34673;52.808;17.856;2024-03-22T13:11:13;28.45;;;16.52;;
48853;SDS011;34673;52.808;17.856;2024-03-22T13:13:40;26.63;;;15.90;;
48853;SDS011;34673;52.808;17.856;2024-03-22T13:16:06;27.25;;;15.93;;
48853;SDS011;34673;52.808;17.856;2024-03-22T13:18:35;26.20;;;15.77;;
48853;SDS011;34673;52.808;17.856;2024-03-22T13:21:01;28.13;;;15.93;;
48853;SDS011;34673;52.808;17.856;2024-03-22T13:23:28;23.95;;;14.15;;
48853;SDS011;34673;52.808;17.856;2024-03-22T13:25:54;24.33;;;14.75;;
48853;SDS011;34673;52.808;17.856;2024-03-22T13:28:21;25.67;;;15.48;;
48853;SDS011;34673;52.808;17.856;2024-03-22T13:30:48;23.50;;;14.13;;
48853;SDS011;34673;52.808;17.856;2024-03-22T13:33:15;23.08;;;13.25;;
48853;SDS011;34673;52.808;17.856;2024-03-22T13:35:41;22.35;;;13.52;;
48853;SDS011;34673;52.808;17.856;2024-03-22T13:38:07;22.58;;;14.60;;
48853;SDS011;34673;52.808;17.856;2024-03-22T13:40:39;22.63;;;13.30;;
48853;SDS011;34673;52.808;17.856;2024-03-22T13:43:10;24.63;;;14.43;;
48853;SDS011;34673;52.808;17.856;2024-03-22T13:45:40;24.30;;;14.52;;
48853;SDS011;34673;52.808;17.856;2024-03-22T13:48:10;23.85;;;14.73;;
48853;SDS011;34673;52.808;17.856;2024-03-22T13:50:38;24.02;;;14.27;;
48853;SDS011;34673;52.808;17.856;2024-03-22T13:53:04;23.48;;;14.43;;
48853;SDS011;34673;52.808;17.856;2024-03-22T13:55:31;22.02;;;14.18;;
48853;SDS011;34673;52.808;17.856;2024-03-22T13:57:58;23.05;;;13.98;;
48853;SDS011;34673;52.808;17.856;2024-03-22T14:00:24;24.63;;;14.85;;
48853;SDS011;34673;52.808;17.856;2024-03-22T14:02:51;25.92;;;15.50;;
48853;SDS011;34673;52.808;17.856;2024-03-22T14:05:20;25.48;;;15.20;;
48853;SDS011;34673;52.808;17.856;2024-03-22T14:07:46;25.45;;;16.02;;